sensor_id;sensor_type;location;lat;lon;timestamp;pressure;altitude;pressure_sealevel;temperature;humidity
12991;BME280;6560;57.692;11.958;2023-10-19T00:02:05;101273.97;;;21.92;54.49
12991;BME280;6560;57.692;11.958;2023-10-19T00:04:30;101280.84;;;22.07;53.58
12991;BME280;6560;57.692;11.958;2023-10-19T00:07:03;101288.00;;;20.76;58.08
12991;BME280;6560;57.692;11.958;2023-10-19T00:09:34;101280.91;;;21.63;56.81
12991;BME280;6560;57.692;11.958;2023-10-19T00:12:04;101289.31;;;22.18;53.64
12991;BME280;6560;57.692;11.958;2023-10-19T00:14:31;101287.72;;;21.77;54.54
12991;BME280;6560;57.692;11.958;2023-10-19T00:16:58;101264.63;;;22.04;53.44
12991;BME280;6560;57.692;11.958;2023-10-19T00:19:26;101268.47;;;21.65;53.37
12991;BME280;6560;57.692;11.958;2023-10-19T00:21:55;101280.16;;;22.13;52.73
12991;BME280;6560;57.692;11.958;2023-10-19T00:24:27;101274.69;;;22.84;50.91
12991;BME280;6560;57.692;11.958;2023-10-19T00:26:53;101283.66;;;22.59;49.31
12991;BME280;6560;57.692;11.958;2023-10-19T00:29:20;101280.03;;;22.83;49.57
12991;BME280;6560;57.692;11.958;2023-10-19T00:32:05;101261.84;;;22.25;49.96
12991;BME280;6560;57.692;11.958;2023-10-19T00:34:31;101279.56;;;21.52;52.08
12991;BME280;6560;57.692;11.958;2023-10-19T00:36:57;101281.13;;;21.91;51.47
12991;BME280;6560;57.692;11.958;2023-10-19T00:39:26;101285.44;;;22.84;49.96
12991;BME280;6560;57.692;11.958;2023-10-19T00:41:53;101256.19;;;22.17;51.25
12991;BME280;6560;57.692;11.958;2023-10-19T00:44:23;101270.97;;;22.30;51.21
12991;BME280;6560;57.692;11.958;2023-10-19T00:46:55;101253.56;;;22.70;49.19
12991;BME280;6560;57.692;11.958;2023-10-19T00:49:29;101280.03;;;22.83;48.55
12991;BME280;6560;57.692;11.958;2023-10-19T00:51:58;101285.34;;;23.62;46.68
12991;BME280;6560;57.692;11.958;2023-10-19T00:54:32;101271.47;;;23.21;47.21
12991;BME280;6560;57.692;11.958;2023-10-19T00:57:02;101269.97;;;23.31;46.64
12991;BME280;6560;57.692;11.958;2023-10-19T00:59:37;101270.03;;;22.30;47.45
12991;BME280;6560;57.692;11.958;2023-10-19T01:02:19;101278.94;;;23.58;46.43
12991;BME280;6560;57.692;11.958;2023-10-19T01:04:53;101275.25;;;23.55;45.76
12991;BME280;6560;57.692;11.958;2023-10-19T01:07:29;101269.19;;;23.07;46.06
12991;BME280;6560;57.692;11.958;2023-10-19T01:09:57;101258.81;;;22.92;45.74
12991;BME280;6560;57.692;11.958;2023-10-19T01:12:24;101260.63;;;22.67;46.81
12991;BME280;6560;57.692;11.958;2023-10-19T01:15:13;101265.28;;;21.30;48.41
12991;BME280;6560;57.692;11.958;2023-10-19T01:17:41;101268.56;;;21.23;51.32
12991;BME280;6560;57.692;11.958;2023-10-19T01:20:11;101265.75;;;21.20;48.34
12991;BME280;6560;57.692;11.958;2023-10-19T01:22:50;101249.72;;;21.01;49.28
12991;BME280;6560;57.692;11.958;2023-10-19T01:25:19;101248.63;;;22.82;46.16
12991;BME280;6560;57.692;11.958;2023-10-19T01:27:52;101267.84;;;22.69;44.43
12991;BME280;6560;57.692;11.958;2023-10-19T01:30:23;101250.72;;;21.92;47.32
12991;BME280;6560;57.692;11.958;2023-10-19T01:32:48;101257.00;;;20.83;48.78
12991;BME280;6560;57.692;11.958;2023-10-19T01:35:14;101254.84;;;21.16;49.00
12991;BME280;6560;57.692;11.958;2023-10-19T01:37:39;101255.22;;;21.04;47.67
12991;BME280;6560;57.692;11.958;2023-10-19T01:40:05;101258.72;;;20.20;51.19
12991;BME280;6560;57.692;11.958;2023-10-19T01:42:31;101265.34;;;20.28;50.67
12991;BME280;6560;57.692;11.958;2023-10-19T01:44:57;101256.31;;;20.45;50.34
12991;BME280;6560;57.692;11.958;2023-10-19T01:47:22;101245.69;;;21.55;48.59
12991;BME280;6560;57.692;11.958;2023-10-19T01:49:49;101260.00;;;22.24;45.62
12991;BME280;6560;57.692;11.958;2023-10-19T01:52:17;101256.00;;;21.67;46.32
12991;BME280;6560;57.692;11.958;2023-10-19T01:54:43;101242.63;;;19.80;51.68
12991;BME280;6560;57.692;11.958;2023-10-19T01:57:09;101262.44;;;19.46;54.76
12991;BME280;6560;57.692;11.958;2023-10-19T01:59:35;101232.28;;;19.68;52.12
12991;BME280;6560;57.692;11.958;2023-10-19T02:02:00;101235.31;;;20.16;51.23
12991;BME280;6560;57.692;11.958;2023-10-19T02:04:27;101256.88;;;20.19;50.27
12991;BME280;6560;57.692;11.958;2023-10-19T02:06:53;101246.03;;;20.56;49.83
12991;BME280;6560;57.692;11.958;2023-10-19T02:09:18;101233.22;;;20.90;48.35
12991;BME280;6560;57.692;11.958;2023-10-19T02:11:45;101256.22;;;20.44;50.58
12991;BME280;6560;57.692;11.958;2023-10-19T02:14:15;101250.28;;;20.92;48.33
12991;BME280;6560;57.692;11.958;2023-10-19T02:16:42;101247.28;;;20.24;50.64
12991;BME280;6560;57.692;11.958;2023-10-19T02:19:21;101236.47;;;20.21;50.55
12991;BME280;6560;57.692;11.958;2023-10-19T02:21:55;101243.00;;;21.11;47.98
12991;BME280;6560;57.692;11.958;2023-10-19T02:24:21;101224.03;;;20.63;48.36
12991;BME280;6560;57.692;11.958;2023-10-19T02:26:50;101232.78;;;20.19;49.46
12991;BME280;6560;57.692;11.958;2023-10-19T02:29:19;101226.09;;;20.49;48.74
12991;BME280;6560;57.692;11.958;2023-10-19T02:31:44;101226.63;;;20.01;50.46
12991;BME280;6560;57.692;11.958;2023-10-19T02:34:12;101230.22;;;20.83;48.26
12991;BME280;6560;57.692;11.958;2023-10-19T02:36:41;101231.44;;;20.91;48.40
12991;BME280;6560;57.692;11.958;2023-10-19T02:39:09;101219.66;;;20.44;49.95
12991;BME280;6560;57.692;11.958;2023-10-19T02:41:35;101238.88;;;20.15;50.96
12991;BME280;6560;57.692;11.958;2023-10-19T02:44:02;101232.91;;;20.01;52.24
12991;BME280;6560;57.692;11.958;2023-10-19T02:46:38;101237.69;;;19.33;54.04
12991;BME280;6560;57.692;11.958;2023-10-19T02:49:08;101224.34;;;18.44;59.00
12991;BME280;6560;57.692;11.958;2023-10-19T02:51:41;101220.28;;;19.60;54.36
12991;BME280;6560;57.692;11.958;2023-10-19T02:54:30;101218.22;;;20.12;52.10
12991;BME280;6560;57.692;11.958;2023-10-19T02:56:58;101226.09;;;20.09;52.12
12991;BME280;6560;57.692;11.958;2023-10-19T02:59:26;101216.03;;;18.91;56.49
12991;BME280;6560;57.692;11.958;2023-10-19T03:01:56;101212.34;;;19.62;54.17
12991;BME280;6560;57.692;11.958;2023-10-19T03:04:36;101206.56;;;19.53;54.46
12991;BME280;6560;57.692;11.958;2023-10-19T03:07:03;101218.84;;;19.12;54.77
12991;BME280;6560;57.692;11.958;2023-10-19T03:09:29;101227.31;;;19.77;54.06
12991;BME280;6560;57.692;11.958;2023-10-19T03:11:56;101209.59;;;19.60;54.73
12991;BME280;6560;57.692;11.958;2023-10-19T03:14:28;101200.38;;;18.99;55.76
12991;BME280;6560;57.692;11.958;2023-10-19T03:16:54;101214.72;;;19.94;52.53
12991;BME280;6560;57.692;11.958;2023-10-19T03:19:23;101197.63;;;20.11;51.82
12991;BME280;6560;57.692;11.958;2023-10-19T03:21:50;101199.59;;;19.95;52.42
12991;BME280;6560;57.692;11.958;2023-10-19T03:24:16;101213.72;;;19.92;52.77
12991;BME280;6560;57.692;11.958;2023-10-19T03:27:01;101206.75;;;20.15;51.76
12991;BME280;6560;57.692;11.958;2023-10-19T03:29:27;101212.91;;;19.74;52.12
12991;BME280;6560;57.692;11.958;2023-10-19T03:32:04;101202.75;;;19.67;51.72
12991;BME280;6560;57.692;11.958;2023-10-19T03:34:29;101200.16;;;19.49;52.23
12991;BME280;6560;57.692;11.958;2023-10-19T03:36:58;101185.41;;;19.39;52.63
12991;BME280;6560;57.692;11.958;2023-10-19T03:39:31;101198.53;;;18.98;54.40
12991;BME280;6560;57.692;11.958;2023-10-19T03:41:59;101192.41;;;19.74;50.93
12991;BME280;6560;57.692;11.958;2023-10-19T03:44:24;101192.97;;;19.86;50.74
12991;BME280;6560;57.692;11.958;2023-10-19T03:46:53;101186.34;;;19.78;50.89
12991;BME280;6560;57.692;11.958;2023-10-19T03:49:22;101176.13;;;20.50;48.53
12991;BME280;6560;57.692;11.958;2023-10-19T03:51:48;101182.31;;;19.49;50.47
12991;BME280;6560;57.692;11.958;2023-10-19T03:54:32;101184.47;;;19.97;50.81
12991;BME280;6560;57.692;11.958;2023-10-19T03:56:58;101188.25;;;19.81;49.95
12991;BME280;6560;57.692;11.958;2023-10-19T03:59:31;101185.63;;;20.02;49.12
12991;BME280;6560;57.692;11.958;2023-10-19T04:02:00;101176.72;;;19.26;53.03
12991;BME280;6560;57.692;11.958;2023-10-19T04:04:26;101180.50;;;19.11;51.98
12991;BME280;6560;57.692;11.958;2023-10-19T04:06:55;101175.84;;;19.64;50.06
12991;BME280;6560;57.692;11.958;2023-10-19T04:09:24;101182.63;;;19.56;51.85
12991;BME280;6560;57.692;11.958;2023-10-19T04:11:57;101162.00;;;19.53;49.73
12991;BME280;6560;57.692;11.958;2023-10-19T04:14:23;101185.56;;;19.42;50.77
12991;BME280;6560;57.692;11.958;2023-10-19T04:16:49;101171.84;;;19.17;51.30
12991;BME280;6560;57.692;11.958;2023-10-19T04:19:15;101162.44;;;19.44;51.41
12991;BME280;6560;57.692;11.958;2023-10-19T04:21:43;101177.66;;;19.26;49.86
12991;BME280;6560;57.692;11.958;2023-10-19T04:24:12;101163.44;;;19.85;49.79
12991;BME280;6560;57.692;11.958;2023-10-19T04:26:38;101156.19;;;19.44;50.25
12991;BME280;6560;57.692;11.958;2023-10-19T04:29:04;101177.22;;;19.54;49.95
12991;BME280;6560;57.692;11.958;2023-10-19T04:31:36;101165.19;;;18.37;50.60
12991;BME280;6560;57.692;11.958;2023-10-19T04:34:03;101160.28;;;19.36;50.93
12991;BME280;6560;57.692;11.958;2023-10-19T04:36:35;101144.69;;;18.36;52.42
12991;BME280;6560;57.692;11.958;2023-10-19T04:39:01;101154.13;;;19.19;50.72
12991;BME280;6560;57.692;11.958;2023-10-19T04:41:27;101160.88;;;19.30;49.39
12991;BME280;6560;57.692;11.958;2023-10-19T04:43:53;101163.19;;;19.79;48.19
12991;BME280;6560;57.692;11.958;2023-10-19T04:46:19;101169.19;;;18.80;47.84
12991;BME280;6560;57.692;11.958;2023-10-19T04:48:45;101161.81;;;18.23;49.94
12991;BME280;6560;57.692;11.958;2023-10-19T04:51:11;101165.94;;;19.05;48.75
12991;BME280;6560;57.692;11.958;2023-10-19T04:53:37;101165.50;;;18.43;49.90
12991;BME280;6560;57.692;11.958;2023-10-19T04:56:04;101155.56;;;18.56;47.91
12991;BME280;6560;57.692;11.958;2023-10-19T04:58:30;101166.06;;;18.89;47.58
12991;BME280;6560;57.692;11.958;2023-10-19T05:00:55;101174.75;;;18.67;47.70
12991;BME280;6560;57.692;11.958;2023-10-19T05:03:24;101181.22;;;18.37;48.61
12991;BME280;6560;57.692;11.958;2023-10-19T05:05:49;101173.34;;;17.56;51.47
12991;BME280;6560;57.692;11.958;2023-10-19T05:08:15;101166.28;;;18.06;49.89
12991;BME280;6560;57.692;11.958;2023-10-19T05:10:40;101174.19;;;18.39;49.10
12991;BME280;6560;57.692;11.958;2023-10-19T05:13:07;101185.44;;;17.81;50.36
12991;BME280;6560;57.692;11.958;2023-10-19T05:15:32;101178.13;;;17.61;51.23
12991;BME280;6560;57.692;11.958;2023-10-19T05:18:00;101179.91;;;17.46;50.98
12991;BME280;6560;57.692;11.958;2023-10-19T05:20:25;101161.91;;;18.24;49.87
12991;BME280;6560;57.692;11.958;2023-10-19T05:22:51;101171.38;;;17.68;49.48
12991;BME280;6560;57.692;11.958;2023-10-19T05:25:16;101179.59;;;17.56;50.93
12991;BME280;6560;57.692;11.958;2023-10-19T05:27:42;101178.94;;;17.76;49.52
12991;BME280;6560;57.692;11.958;2023-10-19T05:30:11;101170.41;;;18.69;47.63
12991;BME280;6560;57.692;11.958;2023-10-19T05:32:37;101168.63;;;18.52;47.02
12991;BME280;6560;57.692;11.958;2023-10-19T05:35:03;101179.78;;;18.79;47.14
12991;BME280;6560;57.692;11.958;2023-10-19T05:37:30;101169.06;;;19.14;46.87
12991;BME280;6560;57.692;11.958;2023-10-19T05:39:56;101155.78;;;19.16;46.88
12991;BME280;6560;57.692;11.958;2023-10-19T05:42:21;101175.44;;;17.61;48.41
12991;BME280;6560;57.692;11.958;2023-10-19T05:44:47;101157.00;;;18.51;46.89
12991;BME280;6560;57.692;11.958;2023-10-19T05:47:13;101154.97;;;18.28;48.13
12991;BME280;6560;57.692;11.958;2023-10-19T05:49:38;101166.69;;;18.31;47.87
12991;BME280;6560;57.692;11.958;2023-10-19T05:52:04;101169.09;;;18.43;47.14
12991;BME280;6560;57.692;11.958;2023-10-19T05:54:29;101162.09;;;18.81;48.22
12991;BME280;6560;57.692;11.958;2023-10-19T05:56:55;101167.81;;;18.19;47.96
12991;BME280;6560;57.692;11.958;2023-10-19T05:59:21;101162.19;;;18.13;49.27
12991;BME280;6560;57.692;11.958;2023-10-19T06:01:48;101169.66;;;18.20;47.96
12991;BME280;6560;57.692;11.958;2023-10-19T06:04:14;101172.53;;;18.58;48.49
12991;BME280;6560;57.692;11.958;2023-10-19T06:06:40;101152.41;;;18.65;48.98
12991;BME280;6560;57.692;11.958;2023-10-19T06:09:08;101178.97;;;18.62;48.49
12991;BME280;6560;57.692;11.958;2023-10-19T06:11:35;101167.28;;;18.60;49.44
12991;BME280;6560;57.692;11.958;2023-10-19T06:14:03;101184.22;;;18.78;47.89
12991;BME280;6560;57.692;11.958;2023-10-19T06:16:33;101180.50;;;18.75;50.02
12991;BME280;6560;57.692;11.958;2023-10-19T06:18:59;101170.25;;;18.66;49.98
12991;BME280;6560;57.692;11.958;2023-10-19T06:21:24;101181.63;;;18.62;50.22
12991;BME280;6560;57.692;11.958;2023-10-19T06:23:50;101174.25;;;19.11;49.43
12991;BME280;6560;57.692;11.958;2023-10-19T06:26:16;101183.00;;;18.71;50.25
12991;BME280;6560;57.692;11.958;2023-10-19T06:28:41;101164.94;;;18.32;52.10
12991;BME280;6560;57.692;11.958;2023-10-19T06:31:07;101173.00;;;18.67;50.70
12991;BME280;6560;57.692;11.958;2023-10-19T06:33:32;101178.19;;;18.64;52.21
12991;BME280;6560;57.692;11.958;2023-10-19T06:36:02;101197.34;;;18.04;52.88
12991;BME280;6560;57.692;11.958;2023-10-19T06:38:29;101185.25;;;18.28;53.44
12991;BME280;6560;57.692;11.958;2023-10-19T06:40:55;101181.94;;;18.68;51.77
12991;BME280;6560;57.692;11.958;2023-10-19T06:43:21;101179.22;;;17.99;52.98
12991;BME280;6560;57.692;11.958;2023-10-19T06:45:50;101183.13;;;18.05;55.71
12991;BME280;6560;57.692;11.958;2023-10-19T06:48:16;101193.56;;;18.35;54.23
12991;BME280;6560;57.692;11.958;2023-10-19T06:50:41;101177.63;;;18.36;54.10
12991;BME280;6560;57.692;11.958;2023-10-19T06:53:07;101174.84;;;18.68;53.62
12991;BME280;6560;57.692;11.958;2023-10-19T06:55:32;101183.19;;;18.23;54.40
12991;BME280;6560;57.692;11.958;2023-10-19T06:57:58;101177.16;;;17.28;57.67
12991;BME280;6560;57.692;11.958;2023-10-19T07:00:25;101204.00;;;17.80;57.62
12991;BME280;6560;57.692;11.958;2023-10-19T07:02:55;101185.97;;;17.11;60.40
12991;BME280;6560;57.692;11.958;2023-10-19T07:05:22;101200.69;;;17.51;60.55
12991;BME280;6560;57.692;11.958;2023-10-19T07:07:50;101187.75;;;18.25;58.32
12991;BME280;6560;57.692;11.958;2023-10-19T07:10:17;101194.47;;;18.01;58.99
12991;BME280;6560;57.692;11.958;2023-10-19T07:12:45;101179.81;;;18.45;58.52
12991;BME280;6560;57.692;11.958;2023-10-19T07:15:12;101173.78;;;19.20;54.13
12991;BME280;6560;57.692;11.958;2023-10-19T07:17:41;101185.84;;;19.11;54.56
12991;BME280;6560;57.692;11.958;2023-10-19T07:20:08;101182.28;;;19.67;53.10
12991;BME280;6560;57.692;11.958;2023-10-19T07:22:35;101158.66;;;18.65;55.01
12991;BME280;6560;57.692;11.958;2023-10-19T07:25:07;101189.03;;;18.16;58.98
12991;BME280;6560;57.692;11.958;2023-10-19T07:27:34;101183.63;;;18.84;57.14
12991;BME280;6560;57.692;11.958;2023-10-19T07:30:01;101186.13;;;19.18;54.35
12991;BME280;6560;57.692;11.958;2023-10-19T07:32:26;101189.44;;;18.57;55.86
12991;BME280;6560;57.692;11.958;2023-10-19T07:34:53;101167.00;;;19.08;54.83
12991;BME280;6560;57.692;11.958;2023-10-19T07:37:20;101191.97;;;19.09;53.66
12991;BME280;6560;57.692;11.958;2023-10-19T07:39:47;101177.59;;;18.70;56.93
12991;BME280;6560;57.692;11.958;2023-10-19T07:42:13;101194.50;;;18.19;58.39
12991;BME280;6560;57.692;11.958;2023-10-19T07:44:40;101192.31;;;18.62;57.74
12991;BME280;6560;57.692;11.958;2023-10-19T07:47:05;101171.88;;;18.62;56.40
12991;BME280;6560;57.692;11.958;2023-10-19T07:49:35;101197.28;;;17.70;60.42
12991;BME280;6560;57.692;11.958;2023-10-19T07:52:04;101168.91;;;18.05;60.41
12991;BME280;6560;57.692;11.958;2023-10-19T07:54:32;101198.16;;;18.37;60.15
12991;BME280;6560;57.692;11.958;2023-10-19T07:56:58;101205.00;;;18.84;58.46
12991;BME280;6560;57.692;11.958;2023-10-19T07:59:23;101167.72;;;19.61;54.94
12991;BME280;6560;57.692;11.958;2023-10-19T08:01:49;101177.38;;;19.39;55.21
12991;BME280;6560;57.692;11.958;2023-10-19T08:04:14;101158.81;;;19.05;57.12
12991;BME280;6560;57.692;11.958;2023-10-19T08:06:40;101199.66;;;18.84;58.42
12991;BME280;6560;57.692;11.958;2023-10-19T08:09:05;101170.13;;;19.37;54.22
12991;BME280;6560;57.692;11.958;2023-10-19T08:11:31;101199.31;;;18.08;59.80
12991;BME280;6560;57.692;11.958;2023-10-19T08:13:56;101203.59;;;19.09;57.27
12991;BME280;6560;57.692;11.958;2023-10-19T08:16:22;101199.84;;;19.06;58.26
12991;BME280;6560;57.692;11.958;2023-10-19T08:18:49;101192.66;;;18.34;60.75
12991;BME280;6560;57.692;11.958;2023-10-19T08:21:15;101181.59;;;19.34;57.49
12991;BME280;6560;57.692;11.958;2023-10-19T08:23:40;101192.50;;;17.48;62.79
12991;BME280;6560;57.692;11.958;2023-10-19T08:26:06;101204.59;;;17.74;62.04
12991;BME280;6560;57.692;11.958;2023-10-19T08:28:31;101182.91;;;18.01;62.64
12991;BME280;6560;57.692;11.958;2023-10-19T08:30:58;101189.44;;;18.57;59.97
12991;BME280;6560;57.692;11.958;2023-10-19T08:33:27;101188.66;;;18.95;58.78
12991;BME280;6560;57.692;11.958;2023-10-19T08:35:53;101164.25;;;19.07;57.24
12991;BME280;6560;57.692;11.958;2023-10-19T08:38:20;101190.59;;;18.28;58.83
12991;BME280;6560;57.692;11.958;2023-10-19T08:40:45;101174.63;;;19.56;55.68
12991;BME280;6560;57.692;11.958;2023-10-19T08:43:12;101181.72;;;19.55;56.17
12991;BME280;6560;57.692;11.958;2023-10-19T08:45:43;101182.69;;;18.65;58.28
12991;BME280;6560;57.692;11.958;2023-10-19T08:48:09;101191.28;;;17.90;62.13
12991;BME280;6560;57.692;11.958;2023-10-19T08:50:37;101188.47;;;18.92;58.03
12991;BME280;6560;57.692;11.958;2023-10-19T08:53:07;101188.31;;;18.02;63.11
12991;BME280;6560;57.692;11.958;2023-10-19T08:55:34;101192.38;;;17.62;62.15
12991;BME280;6560;57.692;11.958;2023-10-19T08:58:00;101172.50;;;18.57;57.57
12991;BME280;6560;57.692;11.958;2023-10-19T09:00:27;101187.06;;;17.47;62.32
12991;BME280;6560;57.692;11.958;2023-10-19T09:02:53;101182.25;;;18.05;59.91
12991;BME280;6560;57.692;11.958;2023-10-19T09:05:19;101184.50;;;18.31;58.89
12991;BME280;6560;57.692;11.958;2023-10-19T09:07:46;101188.44;;;18.55;57.69
12991;BME280;6560;57.692;11.958;2023-10-19T09:10:16;101185.63;;;17.84;60.10
12991;BME280;6560;57.692;11.958;2023-10-19T09:12:41;101180.41;;;18.73;56.75
12991;BME280;6560;57.692;11.958;2023-10-19T09:15:28;101192.22;;;18.78;54.34
12991;BME280;6560;57.692;11.958;2023-10-19T09:20:42;101183.41;;;19.16;54.65
12991;BME280;6560;57.692;11.958;2023-10-19T09:23:18;101184.22;;;18.60;54.72
12991;BME280;6560;57.692;11.958;2023-10-19T09:25:44;101173.41;;;18.23;55.51
12991;BME280;6560;57.692;11.958;2023-10-19T09:28:10;101189.88;;;18.32;53.66
12991;BME280;6560;57.692;11.958;2023-10-19T09:30:38;101175.47;;;18.29;57.16
12991;BME280;6560;57.692;11.958;2023-10-19T09:33:04;101179.06;;;17.96;57.28
12991;BME280;6560;57.692;11.958;2023-10-19T09:35:30;101162.16;;;18.64;55.30
12991;BME280;6560;57.692;11.958;2023-10-19T09:37:56;101174.53;;;19.36;52.40
12991;BME280;6560;57.692;11.958;2023-10-19T09:40:22;101169.97;;;18.60;53.38
12991;BME280;6560;57.692;11.958;2023-10-19T09:42:53;101161.75;;;18.39;53.65
12991;BME280;6560;57.692;11.958;2023-10-19T09:45:19;101177.50;;;18.86;51.01
12991;BME280;6560;57.692;11.958;2023-10-19T09:47:54;101158.97;;;19.65;50.11
12991;BME280;6560;57.692;11.958;2023-10-19T09:50:20;101176.50;;;18.84;49.52
12991;BME280;6560;57.692;11.958;2023-10-19T09:52:45;101159.56;;;19.21;48.83
12991;BME280;6560;57.692;11.958;2023-10-19T09:55:22;101187.59;;;19.11;50.04
12991;BME280;6560;57.692;11.958;2023-10-19T09:58:08;101171.47;;;18.90;51.46
12991;BME280;6560;57.692;11.958;2023-10-19T10:00:35;101170.03;;;18.97;50.22
12991;BME280;6560;57.692;11.958;2023-10-19T10:03:01;101176.91;;;19.11;49.93
12991;BME280;6560;57.692;11.958;2023-10-19T10:10:44;101179.78;;;18.79;50.23
12991;BME280;6560;57.692;11.958;2023-10-19T10:15:54;101173.66;;;18.99;49.06
12991;BME280;6560;57.692;11.958;2023-10-19T10:18:20;101156.97;;;19.80;46.05
12991;BME280;6560;57.692;11.958;2023-10-19T10:20:46;101145.94;;;19.72;46.83
12991;BME280;6560;57.692;11.958;2023-10-19T10:23:16;101179.13;;;19.39;45.92
12991;BME280;6560;57.692;11.958;2023-10-19T10:25:45;101166.47;;;18.27;47.43
12991;BME280;6560;57.692;11.958;2023-10-19T10:28:14;101150.28;;;18.76;47.43
12991;BME280;6560;57.692;11.958;2023-10-19T10:31:12;101157.09;;;18.53;48.27
12991;BME280;6560;57.692;11.958;2023-10-19T10:33:42;101170.66;;;18.04;49.41
12991;BME280;6560;57.692;11.958;2023-10-19T10:36:11;101147.03;;;19.20;46.67
12991;BME280;6560;57.692;11.958;2023-10-19T10:38:37;101160.09;;;18.41;46.76
12991;BME280;6560;57.692;11.958;2023-10-19T10:41:03;101153.53;;;18.88;47.68
12991;BME280;6560;57.692;11.958;2023-10-19T10:43:29;101156.75;;;19.37;45.20
12991;BME280;6560;57.692;11.958;2023-10-19T10:46:07;101156.28;;;18.36;45.73
12991;BME280;6560;57.692;11.958;2023-10-19T10:48:32;101144.44;;;18.84;45.42
12991;BME280;6560;57.692;11.958;2023-10-19T10:50:58;101147.28;;;19.63;44.55
12991;BME280;6560;57.692;11.958;2023-10-19T10:53:24;101150.91;;;19.45;44.68
12991;BME280;6560;57.692;11.958;2023-10-19T10:56:00;101124.94;;;18.67;45.60
12991;BME280;6560;57.692;11.958;2023-10-19T10:58:25;101150.84;;;18.88;45.73
12991;BME280;6560;57.692;11.958;2023-10-19T11:00:51;101154.94;;;18.99;45.41
12991;BME280;6560;57.692;11.958;2023-10-19T11:03:16;101143.84;;;20.05;43.61
12991;BME280;6560;57.692;11.958;2023-10-19T11:05:42;101155.53;;;19.11;43.66
12991;BME280;6560;57.692;11.958;2023-10-19T11:08:16;101141.13;;;19.07;44.83
12991;BME280;6560;57.692;11.958;2023-10-19T11:10:46;101165.25;;;18.20;46.23
12991;BME280;6560;57.692;11.958;2023-10-19T11:13:14;101129.56;;;18.71;45.73
12991;BME280;6560;57.692;11.958;2023-10-19T11:15:48;101136.94;;;18.95;44.55
12991;BME280;6560;57.692;11.958;2023-10-19T11:21:11;101138.94;;;19.37;43.95
12991;BME280;6560;57.692;11.958;2023-10-19T11:23:45;101140.41;;;19.68;43.00
12991;BME280;6560;57.692;11.958;2023-10-19T11:26:13;101129.97;;;19.16;43.82
12991;BME280;6560;57.692;11.958;2023-10-19T11:28:39;101142.97;;;19.28;42.57
12991;BME280;6560;57.692;11.958;2023-10-19T11:31:18;101143.53;;;19.78;41.20
12991;BME280;6560;57.692;11.958;2023-10-19T11:33:47;101146.03;;;19.55;41.67
12991;BME280;6560;57.692;11.958;2023-10-19T11:36:17;101141.31;;;18.40;41.85
12991;BME280;6560;57.692;11.958;2023-10-19T11:38:44;101126.53;;;18.82;42.79
12991;BME280;6560;57.692;11.958;2023-10-19T11:41:13;101122.50;;;19.28;40.89
12991;BME280;6560;57.692;11.958;2023-10-19T11:43:41;101116.69;;;18.63;41.34
12991;BME280;6560;57.692;11.958;2023-10-19T11:46:07;101139.66;;;17.90;42.82
12991;BME280;6560;57.692;11.958;2023-10-19T11:48:36;101102.03;;;18.19;43.27
12991;BME280;6560;57.692;11.958;2023-10-19T11:51:03;101126.97;;;18.20;42.77
12991;BME280;6560;57.692;11.958;2023-10-19T11:53:32;101115.91;;;18.65;41.81
12991;BME280;6560;57.692;11.958;2023-10-19T11:56:03;101093.00;;;19.65;41.17
12991;BME280;6560;57.692;11.958;2023-10-19T11:58:30;101098.44;;;18.37;41.47
12991;BME280;6560;57.692;11.958;2023-10-19T12:01:00;101115.06;;;18.49;42.66
12991;BME280;6560;57.692;11.958;2023-10-19T12:03:25;101134.44;;;18.27;42.18
12991;BME280;6560;57.692;11.958;2023-10-19T12:05:51;101153.59;;;18.36;42.59
12991;BME280;6560;57.692;11.958;2023-10-19T12:08:18;101117.38;;;18.59;43.30
12991;BME280;6560;57.692;11.958;2023-10-19T12:10:44;101114.38;;;18.53;42.76
12991;BME280;6560;57.692;11.958;2023-10-19T12:13:09;101123.50;;;18.56;41.58
12991;BME280;6560;57.692;11.958;2023-10-19T12:15:35;101142.34;;;17.58;43.36
12991;BME280;6560;57.692;11.958;2023-10-19T12:18:02;101134.13;;;18.39;43.17
12991;BME280;6560;57.692;11.958;2023-10-19T12:20:28;101126.19;;;17.54;42.54
12991;BME280;6560;57.692;11.958;2023-10-19T12:22:56;101101.41;;;18.25;43.52
12991;BME280;6560;57.692;11.958;2023-10-19T12:25:22;101136.09;;;18.07;44.02
12991;BME280;6560;57.692;11.958;2023-10-19T12:27:55;101120.88;;;18.22;43.40
12991;BME280;6560;57.692;11.958;2023-10-19T12:30:21;101119.72;;;18.17;43.05
12991;BME280;6560;57.692;11.958;2023-10-19T12:32:52;101125.59;;;18.28;44.06
12991;BME280;6560;57.692;11.958;2023-10-19T12:35:18;101144.50;;;17.00;45.08
12991;BME280;6560;57.692;11.958;2023-10-19T12:37:49;101111.97;;;17.88;44.07
12991;BME280;6560;57.692;11.958;2023-10-19T12:40:18;101141.25;;;17.22;43.33
12991;BME280;6560;57.692;11.958;2023-10-19T12:42:53;101140.81;;;17.95;42.91
12991;BME280;6560;57.692;11.958;2023-10-19T12:45:24;101120.59;;;17.82;43.26
12991;BME280;6560;57.692;11.958;2023-10-19T12:47:50;101104.81;;;17.04;43.79
12991;BME280;6560;57.692;11.958;2023-10-19T12:50:19;101096.63;;;17.50;42.42
12991;BME280;6560;57.692;11.958;2023-10-19T12:52:49;101101.44;;;18.43;42.39
12991;BME280;6560;57.692;11.958;2023-10-19T12:55:16;101084.50;;;18.42;42.16
12991;BME280;6560;57.692;11.958;2023-10-19T12:57:42;101092.41;;;18.41;41.97
12991;BME280;6560;57.692;11.958;2023-10-19T13:00:08;101082.13;;;18.48;41.83
12991;BME280;6560;57.692;11.958;2023-10-19T13:02:54;101095.69;;;18.53;42.26
12991;BME280;6560;57.692;11.958;2023-10-19T13:05:34;101084.00;;;19.05;41.67
12991;BME280;6560;57.692;11.958;2023-10-19T13:08:01;101079.72;;;18.90;41.68
12991;BME280;6560;57.692;11.958;2023-10-19T13:10:28;101061.75;;;18.68;41.86